Time;durP1;ratioP1;P1;durP2;ratioP2;P2;SDS_P1;SDS_P2;PMS_P1;PMS_P2;Temp;Humidity;BMP_temperature;BMP_pressure;BME280_temperature;BME280_humidity;BME280_pressure;Samples;Min_cycle;Max_cycle;Signal;HPM_P1;HPM_P2
2022/07/29 00:01:59;;;;;;;;;10.33;10.00;;;;;22.83;52.71;101441.29;110733;1258;21845;-59
2022/07/29 00:04:27;;;;;;;;;14.00;13.00;;;;;22.79;52.77;101444.86;110491;1259;20209;-60
2022/07/29 00:06:54;;;;;;;;;13.00;11.33;;;;;22.68;53.19;101442.58;110804;1258;19312;-60
2022/07/29 00:09:21;;;;;;;;;15.67;14.67;;;;;22.79;52.96;101439.21;110719;1258;19485;-60
2022/07/29 00:11:49;;;;;;;;;12.67;12.67;;;;;22.86;52.75;101441.52;110729;1258;23617;-59
2022/07/29 00:14:16;;;;;;;;;14.00;12.00;;;;;22.87;52.87;101439.69;110756;1258;19139;-59
2022/07/29 00:16:44;;;;;;;;;14.33;14.00;;;;;22.87;52.58;101442.27;110765;1258;19813;-59
2022/07/29 00:19:11;;;;;;;;;19.00;18.00;;;;;22.91;52.41;101443.06;110781;1258;20331;-61
2022/07/29 00:21:39;;;;;;;;;15.00;14.67;;;;;22.94;52.43;101443.86;110763;1258;23022;-59
2022/07/29 00:24:06;;;;;;;;;12.00;12.00;;;;;22.83;52.56;101448.78;110721;1258;19590;-59
2022/07/29 00:26:33;;;;;;;;;14.00;14.00;;;;;22.78;52.79;101451.70;110762;1257;20320;-59
2022/07/29 00:29:01;;;;;;;;;15.00;14.00;;;;;22.69;53.00;101450.92;110715;1258;19284;-61
2022/07/29 00:31:29;;;;;;;;;11.00;11.00;;;;;22.63;53.10;101452.59;110685;1258;22962;-57
2022/07/29 00:33:56;;;;;;;;;14.00;12.00;;;;;22.63;53.27;101458.98;110808;1257;20317;-61
2022/07/29 00:36:23;;;;;;;;;11.50;11.00;;;;;22.60;53.43;101454.84;110771;1257;19370;-60
2022/07/29 00:38:51;;;;;;;;;10.00;10.00;;;;;22.59;53.33;101454.17;110660;1258;19918;-60
2022/07/29 00:41:18;;;;;;;;;12.00;10.00;;;;;22.64;53.39;101453.83;110563;1258;20351;-59
2022/07/29 00:43:45;;;;;;;;;11.00;9.67;;;;;22.61;53.32;101455.91;110662;1258;19222;-57
2022/07/29 00:46:13;;;;;;;;;10.00;9.00;;;;;22.63;53.25;101454.60;110706;1258;19486;-59
2022/07/29 00:48:40;;;;;;;;;9.00;8.33;;;;;22.60;53.22;101453.70;110657;1258;20273;-59
2022/07/29 00:51:08;;;;;;;;;7.00;7.00;;;;;22.70;53.32;101457.30;110746;1258;19239;-61
2022/07/29 00:53:35;;;;;;;;;7.00;7.00;;;;;22.75;52.88;101453.09;110712;1258;19463;-59
2022/07/29 00:56:02;;;;;;;;;8.33;8.33;;;;;22.69;53.08;101450.33;110756;1258;22994;-58
2022/07/29 00:58:30;;;;;;;;;8.00;8.00;;;;;22.71;52.97;101455.38;110766;1258;19254;-60
2022/07/29 01:00:57;;;;;;;;;6.00;6.00;;;;;22.76;52.99;101453.75;110782;1258;19458;-58
2022/07/29 01:03:25;;;;;;;;;6.00;6.00;;;;;22.75;52.81;101455.48;110702;1258;20335;-56
2022/07/29 01:05:52;;;;;;;;;7.00;6.67;;;;;22.66;53.18;101449.20;110694;1258;19222;-58
2022/07/29 01:08:19;;;;;;;;;6.33;6.00;;;;;22.56;53.39;101450.15;110747;1258;19495;-60
2022/07/29 01:10:47;;;;;;;;;7.00;7.00;;;;;22.53;53.54;101455.82;110631;1257;20314;-58
2022/07/29 01:13:14;;;;;;;;;9.00;6.67;;;;;22.58;53.51;101457.21;110640;1258;19483;-60
2022/07/29 01:15:42;;;;;;;;;9.00;9.00;;;;;22.60;53.18;101455.34;110745;1258;19517;-56
2022/07/29 01:18:09;;;;;;;;;7.67;7.67;;;;;22.57;53.28;101452.23;110723;1257;20229;-58
2022/07/29 01:20:38;;;;;;;;;6.00;6.00;;;;;22.53;53.54;101451.98;110735;1258;19220;-58
2022/07/29 01:23:05;;;;;;;;;9.67;9.00;;;;;22.48;53.70;101455.80;110728;1258;23589;-60
2022/07/29 01:25:33;;;;;;;;;10.67;10.67;;;;;22.42;53.63;101459.70;110714;1258;20611;-60
2022/07/29 01:28:00;;;;;;;;;12.00;11.00;;;;;22.46;53.82;101452.02;110870;1258;19276;-58
2022/07/29 01:30:27;;;;;;;;;9.67;9.67;;;;;22.56;53.49;101453.95;110742;1257;19498;-60
2022/07/29 01:32:55;;;;;;;;;9.67;9.00;;;;;22.62;53.31;101451.30;110761;1258;20516;-63
2022/07/29 01:35:22;;;;;;;;;9.00;9.00;;;;;22.56;53.48;101449.60;110745;1258;19368;-60
2022/07/29 01:37:50;;;;;;;;;10.50;9.50;;;;;22.53;53.51;101450.52;110740;1258;19748;-60
2022/07/29 01:40:17;;;;;;;;;11.33;11.33;;;;;22.48;53.67;101452.50;110757;1258;21131;-61
2022/07/29 01:42:44;;;;;;;;;11.00;10.00;;;;;22.45;53.97;101457.28;110765;1258;19704;-61
2022/07/29 01:45:12;;;;;;;;;11.33;10.33;;;;;22.51;53.74;101453.05;110577;1259;19479;-59
2022/07/29 01:47:39;;;;;;;;;12.00;11.00;;;;;22.58;53.39;101449.52;110585;1258;20308;-60
2022/07/29 01:50:07;;;;;;;;;15.00;13.00;;;;;22.55;53.50;101456.59;110598;1259;19299;-60
2022/07/29 01:52:34;;;;;;;;;13.33;13.33;;;;;22.66;53.23;101452.14;110741;1258;21260;-60
2022/07/29 01:55:01;;;;;;;;;12.00;11.00;;;;;22.54;53.39;101454.52;110701;1258;20320;-58
2022/07/29 01:57:29;;;;;;;;;11.67;11.00;;;;;22.52;53.35;101453.19;110723;1258;19166;-59
2022/07/29 01:59:56;;;;;;;;;14.33;12.67;;;;;22.57;53.61;101448.91;110738;1258;19559;-59
2022/07/29 02:02:24;;;;;;;;;11.00;10.00;;;;;22.51;53.53;101453.08;110590;1258;22799;-60
2022/07/29 02:04:51;;;;;;;;;11.00;10.00;;;;;22.37;53.84;101453.70;110734;1258;19260;-62
2022/07/29 02:07:18;;;;;;;;;14.50;12.00;;;;;22.32;54.06;101447.62;110761;1258;19593;-59
2022/07/29 02:09:46;;;;;;;;;13.33;12.00;;;;;22.33;54.15;101443.66;110765;1258;20560;-60
2022/07/29 02:12:13;;;;;;;;;11.00;11.00;;;;;22.31;53.86;101443.27;110734;1258;19270;-59
2022/07/29 02:14:41;;;;;;;;;12.00;12.00;;;;;22.33;53.99;101445.91;110704;1258;19559;-60
2022/07/29 02:17:08;;;;;;;;;15.67;13.00;;;;;22.33;54.01;101435.20;110487;1259;20302;-54
2022/07/29 02:19:36;;;;;;;;;11.67;11.67;;;;;22.35;53.79;101438.66;110752;1258;19202;-59
2022/07/29 02:22:03;;;;;;;;;12.33;11.67;;;;;22.29;54.12;101433.17;110796;1258;20713;-60
2022/07/29 02:24:31;;;;;;;;;11.67;10.67;;;;;22.29;54.27;101435.35;110743;1258;20276;-60
2022/07/29 02:26:58;;;;;;;;;11.00;10.33;;;;;22.34;54.14;101438.20;110782;1258;19275;-60
2022/07/29 02:29:25;;;;;;;;;12.67;10.33;;;;;22.45;53.82;101441.00;110772;1257;19569;-60
2022/07/29 02:31:53;;;;;;;;;12.00;10.67;;;;;22.52;53.42;101439.86;110729;1258;22729;-60
2022/07/29 02:34:20;;;;;;;;;11.67;11.00;;;;;22.48;53.49;101439.94;110760;1258;19085;-60
2022/07/29 02:36:47;;;;;;;;;11.67;11.00;;;;;22.40;53.67;101439.39;110788;1258;24034;-58
2022/07/29 02:39:15;;;;;;;;;13.67;10.67;;;;;22.46;53.54;101438.90;110745;1258;20451;-60
2022/07/29 02:41:42;;;;;;;;;13.00;11.00;;;;;22.38;53.72;101438.70;110679;1258;19302;-61
2022/07/29 02:44:10;;;;;;;;;15.00;13.33;;;;;22.34;53.77;101436.19;110675;1258;23184;-60
2022/07/29 02:46:37;;;;;;;;;13.67;11.67;;;;;22.18;54.26;101439.33;110698;1257;20288;-62
2022/07/29 02:49:05;;;;;;;;;13.00;11.33;;;;;22.24;54.05;101433.59;110718;1258;20429;-59
2022/07/29 02:51:32;;;;;;;;;14.67;13.67;;;;;22.27;54.08;101431.40;110786;1258;19501;-58
2022/07/29 02:54:00;;;;;;;;;13.33;12.33;;;;;22.26;54.02;101430.79;110725;1258;23553;-61
2022/07/29 02:56:28;;;;;;;;;11.67;11.00;;;;;22.27;53.89;101423.68;110803;1258;19094;-57
2022/07/29 02:58:56;;;;;;;;;16.33;16.33;;;;;22.35;53.70;101427.59;110584;1258;19503;-59
2022/07/29 03:01:23;;;;;;;;;13.67;13.00;;;;;22.26;53.74;101428.91;110446;1259;20638;-58
2022/07/29 03:03:50;;;;;;;;;14.50;12.00;;;;;22.26;53.99;101425.63;110498;1261;19314;-59
2022/07/29 03:06:17;;;;;;;;;14.50;13.50;;;;;22.28;53.81;101421.64;110763;1258;23043;-60
2022/07/29 03:08:45;;;;;;;;;16.33;13.33;;;;;22.23;53.92;101422.73;110731;1258;20276;-61
2022/07/29 03:11:12;;;;;;;;;13.67;12.33;;;;;22.16;54.31;101426.95;110721;1258;22514;-62
2022/07/29 03:13:40;;;;;;;;;14.33;13.33;;;;;22.15;54.05;101429.21;110582;1258;19519;-60
2022/07/29 03:16:08;;;;;;;;;15.00;14.00;;;;;22.07;54.21;101432.83;110477;1260;20353;-59
2022/07/29 03:18:35;;;;;;;;;12.33;11.67;;;;;22.12;54.10;101436.06;110795;1258;23267;-60
2022/07/29 03:21:03;;;;;;;;;11.00;10.67;;;;;22.22;54.06;101438.70;110555;1258;23393;-60
2022/07/29 03:23:30;;;;;;;;;17.00;15.33;;;;;22.24;54.02;101438.61;110498;1259;20953;-60
2022/07/29 03:25:58;;;;;;;;;12.33;12.33;;;;;22.18;53.76;101440.55;110477;1259;19263;-60
2022/07/29 03:28:27;;;;;;;;;11.67;11.67;;;;;22.10;54.27;101438.73;110450;1259;22649;-59
2022/07/29 03:30:54;;;;;;;;;12.67;12.67;;;;;22.04;54.18;101437.29;110471;1258;23505;-59
2022/07/29 03:33:22;;;;;;;;;10.00;9.67;;;;;22.12;54.23;101441.86;110554;1259;19285;-57
2022/07/29 03:35:49;;;;;;;;;12.67;12.67;;;;;22.30;53.71;101441.53;110437;1258;22948;-58
2022/07/29 03:38:16;;;;;;;;;12.33;11.67;;;;;22.30;53.69;101444.13;110341;1259;20361;-58
2022/07/29 03:40:44;;;;;;;;;10.67;10.67;;;;;22.24;53.98;101448.34;110398;1258;20366;-59
2022/07/29 03:43:11;;;;;;;;;10.33;9.67;;;;;22.21;53.83;101448.13;110495;1261;20997;-61
2022/07/29 03:45:38;;;;;;;;;9.67;9.67;;;;;22.19;53.80;101450.23;110565;1259;20522;-60
2022/07/29 03:48:06;;;;;;;;;10.00;10.00;;;;;22.08;54.08;101452.78;110514;1259;19189;-60
2022/07/29 03:50:33;;;;;;;;;11.00;9.00;;;;;22.03;54.27;101451.45;110551;1259;19629;-60
2022/07/29 03:53:00;;;;;;;;;17.50;16.50;;;;;22.07;54.02;101456.48;110632;1258;22737;-60
2022/07/29 03:55:28;;;;;;;;;12.67;12.67;;;;;22.10;53.92;101454.68;110722;1258;23687;-60
2022/07/29 03:57:55;;;;;;;;;13.33;12.67;;;;;22.08;54.02;101453.28;110784;1257;19904;-63
2022/07/29 04:00:23;;;;;;;;;14.00;13.00;;;;;22.18;53.88;101452.80;110680;1258;23167;-62
2022/07/29 04:02:50;;;;;;;;;16.33;14.67;;;;;22.05;53.84;101448.46;110692;1258;19286;-61
2022/07/29 04:05:18;;;;;;;;;15.33;14.33;;;;;22.07;54.06;101444.80;110731;1258;23386;-60
2022/07/29 04:07:45;;;;;;;;;10.33;10.33;;;;;22.16;53.90;101441.13;110723;1258;20362;-60
2022/07/29 04:10:13;;;;;;;;;14.67;14.67;;;;;22.10;53.82;101440.35;110795;1258;19145;-59
2022/07/29 04:12:40;;;;;;;;;16.00;15.00;;;;;22.13;53.83;101441.66;110624;1258;19472;-58
2022/07/29 04:15:08;;;;;;;;;14.33;13.00;;;;;22.32;53.44;101440.99;110641;1258;23128;-62
2022/07/29 04:17:35;;;;;;;;;12.33;11.00;;;;;22.38;53.20;101439.80;110569;1259;20422;-59
2022/07/29 04:20:03;;;;;;;;;14.33;13.67;;;;;22.20;53.62;101445.09;110565;1258;22336;-60
2022/07/29 04:22:30;;;;;;;;;14.00;14.00;;;;;22.16;53.59;101443.00;110586;1259;23221;-62
2022/07/29 04:24:57;;;;;;;;;13.00;13.00;;;;;22.17;53.70;101438.67;110656;1259;19289;-60
2022/07/29 04:27:25;;;;;;;;;13.00;12.67;;;;;22.14;53.75;101442.05;110608;1259;19710;-60
2022/07/29 04:29:52;;;;;;;;;13.33;11.67;;;;;22.09;53.76;101439.02;110589;1259;21046;-63
2022/07/29 04:32:19;;;;;;;;;14.33;14.33;;;;;22.17;53.67;101440.51;110560;1256;19262;-60
2022/07/29 04:34:47;;;;;;;;;15.00;15.00;;;;;22.24;53.69;101447.16;110593;1258;19528;-59
2022/07/29 04:37:15;;;;;;;;;11.67;11.67;;;;;22.07;54.46;101447.38;110622;1259;23035;-59
2022/07/29 04:39:42;;;;;;;;;13.67;13.33;;;;;22.12;54.52;101442.98;110603;1258;19286;-60
2022/07/29 04:42:09;;;;;;;;;15.67;15.67;;;;;22.28;54.01;101443.39;110746;1258;19586;-60
2022/07/29 04:44:37;;;;;;;;;13.33;13.33;;;;;22.19;54.09;101448.59;110743;1258;20289;-56
2022/07/29 04:47:04;;;;;;;;;17.50;16.00;;;;;22.08;54.17;101452.33;110731;1258;21258;-59
2022/07/29 04:49:32;;;;;;;;;12.33;12.33;;;;;21.88;54.49;101446.06;110739;1258;19843;-57
2022/07/29 04:51:59;;;;;;;;;17.00;15.00;;;;;21.91;54.50;101445.50;110794;1258;20305;-60
2022/07/29 04:54:26;;;;;;;;;15.00;15.00;;;;;22.10;54.27;101444.38;110734;1258;19375;-60
2022/07/29 04:56:54;;;;;;;;;15.00;15.00;;;;;22.18;53.98;101441.70;110725;1258;20149;-60
2022/07/29 04:59:21;;;;;;;;;13.00;13.00;;;;;22.28;53.80;101436.14;110746;1258;23219;-60
2022/07/29 05:01:48;;;;;;;;;10.67;10.33;;;;;22.53;53.29;101436.11;110785;1258;19354;-60
2022/07/29 05:04:16;;;;;;;;;9.50;9.50;;;;;22.36;53.30;101437.58;110750;1258;19993;-61
2022/07/29 05:06:44;;;;;;;;;10.00;10.00;;;;;22.35;53.54;101440.31;110729;1258;20574;-59
2022/07/29 05:09:11;;;;;;;;;10.50;10.50;;;;;22.47;53.25;101445.20;110641;1258;19285;-60
2022/07/29 05:11:38;;;;;;;;;9.50;9.50;;;;;22.41;53.23;101455.50;110552;1258;19749;-60
2022/07/29 05:14:06;;;;;;;;;10.00;10.00;;;;;22.09;53.70;101461.68;110555;1258;20350;-61
2022/07/29 05:16:33;;;;;;;;;11.00;10.00;;;;;21.93;54.33;101458.18;110610;1258;22182;-60
2022/07/29 05:19:01;;;;;;;;;13.00;13.00;;;;;22.00;54.46;101457.72;110491;1260;19600;-59
2022/07/29 05:21:28;;;;;;;;;9.00;9.00;;;;;21.90;54.49;101461.48;110425;1259;23817;-62
2022/07/29 05:23:56;;;;;;;;;12.33;12.33;;;;;22.09;54.43;101460.86;110514;1259;23585;-60
2022/07/29 05:26:24;;;;;;;;;8.33;8.33;;;;;22.30;53.82;101463.80;110611;1258;19415;-60
2022/07/29 05:28:51;;;;;;;;;12.67;7.67;;;;;22.30;53.85;101463.80;110586;1259;21088;-61
2022/07/29 05:31:18;;;;;;;;;10.00;9.00;;;;;22.08;54.23;101466.56;110710;1257;19393;-58
2022/07/29 05:33:46;;;;;;;;;11.00;10.00;;;;;21.90;54.80;101456.13;110712;1258;19667;-60
2022/07/29 05:36:13;;;;;;;;;10.67;10.67;;;;;21.91;54.80;101457.46;110661;1258;20341;-60
2022/07/29 05:38:41;;;;;;;;;11.00;11.00;;;;;21.89;55.02;101457.90;110404;1260;20234;-58
2022/07/29 05:41:08;;;;;;;;;9.33;9.00;;;;;21.92;54.94;101455.92;110415;1259;21140;-58
2022/07/29 05:43:35;;;;;;;;;9.00;9.00;;;;;22.13;54.59;101457.52;110420;1259;22944;-59
2022/07/29 05:46:03;;;;;;;;;10.00;10.00;;;;;22.24;54.43;101457.20;110472;1261;19309;-62
2022/07/29 05:48:30;;;;;;;;;10.00;10.00;;;;;22.40;54.13;101459.73;110381;1259;23529;-59
2022/07/29 05:50:58;;;;;;;;;6.00;6.00;;;;;22.40;54.46;101457.39;110403;1259;20333;-61
2022/07/29 05:53:25;;;;;;;;;8.33;8.33;;;;;22.68;53.85;101451.88;110383;1259;19220;-61
2022/07/29 05:55:53;;;;;;;;;10.00;10.00;;;;;22.82;53.65;101451.08;110589;1258;19579;-63
2022/07/29 05:58:20;;;;;;;;;6.00;6.00;;;;;22.80;53.71;101459.08;110441;1259;20276;-60
2022/07/29 06:00:47;;;;;;;;;6.50;6.50;;;;;22.58;54.28;101461.23;110490;1261;19189;-59
2022/07/29 06:03:15;;;;;;;;;6.67;6.33;;;;;22.47;54.57;101459.16;110370;1259;19504;-60
2022/07/29 06:05:43;;;;;;;;;6.67;6.33;;;;;22.41;54.58;101464.51;110425;1261;24982;-62
2022/07/29 06:08:10;;;;;;;;;6.00;6.00;;;;;22.45;54.77;101459.61;110435;1260;19194;-60
2022/07/29 06:10:38;;;;;;;;;5.00;5.00;;;;;22.60;54.44;101460.11;110450;1261;23699;-62
2022/07/29 06:13:05;;;;;;;;;6.50;6.00;;;;;22.63;54.47;101452.96;110505;1260;20783;-61
2022/07/29 06:15:33;;;;;;;;;6.67;6.00;;;;;22.68;54.23;101455.93;110458;1259;19880;-59
2022/07/29 06:18:00;;;;;;;;;5.67;5.67;;;;;22.71;54.34;101456.92;110444;1259;19655;-57
2022/07/29 06:20:29;;;;;;;;;5.00;5.00;;;;;22.80;54.21;101454.02;110573;1259;20916;-59
2022/07/29 06:22:56;;;;;;;;;5.67;5.67;;;;;22.84;54.01;101452.78;110492;1259;23007;-57
2022/07/29 06:25:24;;;;;;;;;5.00;5.00;;;;;22.67;54.40;101450.40;110465;1259;19491;-57
2022/07/29 06:27:52;;;;;;;;;5.00;5.00;;;;;22.54;54.97;101446.77;110455;1260;21823;-65
2022/07/29 06:30:19;;;;;;;;;6.00;5.67;;;;;22.66;54.81;101449.59;110425;1260;19212;-66
2022/07/29 06:32:47;;;;;;;;;5.00;5.00;;;;;22.81;54.51;101449.95;110344;1261;19458;-63
2022/07/29 06:35:14;;;;;;;;;6.00;6.00;;;;;22.88;54.41;101451.45;110469;1259;20270;-62
2022/07/29 06:37:42;;;;;;;;;5.00;3.67;;;;;22.96;54.33;101450.89;110611;1259;19032;-65
2022/07/29 06:43:02;;;;;;;;;6.00;6.00;;;;;23.20;53.76;101452.41;110166;1264;20387;-64
2022/07/29 06:45:29;;;;;;;;;5.00;5.00;;;;;23.13;54.07;101457.52;109936;1265;19467;-62
2022/07/29 06:47:57;;;;;;;;;6.00;6.00;;;;;23.08;54.28;101452.27;109967;1265;19682;-63
2022/07/29 06:50:24;;;;;;;;;5.00;5.00;;;;;23.09;54.13;101449.27;109921;1264;21240;-64
2022/07/29 06:52:52;;;;;;;;;6.33;6.00;;;;;23.19;53.99;101451.89;110531;1264;22327;-64
2022/07/29 06:55:19;;;;;;;;;7.67;5.00;;;;;23.25;54.20;101446.92;110137;1264;20687;-63
2022/07/29 06:57:47;;;;;;;;;6.00;6.00;;;;;23.35;53.92;101447.40;110169;1264;21056;-66
2022/07/29 07:00:14;;;;;;;;;5.00;5.00;;;;;23.38;53.73;101445.95;110101;1265;19893;-65
2022/07/29 07:02:42;;;;;;;;;6.00;6.00;;;;;22.98;54.39;101441.38;110199;1264;20053;-64
2022/07/29 07:05:09;;;;;;;;;7.00;7.00;;;;;22.96;54.81;101438.15;110167;1264;21644;-66
2022/07/29 07:07:36;;;;;;;;;6.00;6.00;;;;;22.84;54.81;101443.02;109937;1264;20555;-65
2022/07/29 07:10:04;;;;;;;;;5.67;5.67;;;;;22.40;55.71;101443.53;110133;1265;20264;-63
2022/07/29 07:12:31;;;;;;;;;6.00;6.00;;;;;22.17;56.33;101443.73;110044;1265;23517;-63
2022/07/29 07:14:58;;;;;;;;;6.00;6.00;;;;;22.06;57.00;101438.56;110175;1264;19245;-67
2022/07/29 07:17:26;;;;;;;;;7.00;7.00;;;;;22.42;56.12;101434.44;109982;1263;19553;-63
2022/07/29 07:19:53;;;;;;;;;5.00;5.00;;;;;22.59;55.39;101434.11;111345;1259;20762;-65
2022/07/29 07:22:20;;;;;;;;;6.00;6.00;;;;;22.50;55.26;101434.14;110502;1259;19191;-64
2022/07/29 07:24:48;;;;;;;;;5.67;5.67;;;;;22.81;54.88;101434.58;110606;1258;19516;-64
2022/07/29 07:27:15;;;;;;;;;5.50;5.50;;;;;23.06;54.33;101433.01;110606;1259;20436;-66
2022/07/29 07:29:42;;;;;;;;;7.00;7.00;;;;;23.07;54.58;101433.69;110572;1258;19296;-65
2022/07/29 07:32:10;;;;;;;;;6.33;6.00;;;;;23.30;54.53;101438.33;110558;1259;19895;-65
2022/07/29 07:34:38;;;;;;;;;5.00;5.00;;;;;23.27;54.22;101434.47;110578;1259;20695;-66
2022/07/29 07:37:05;;;;;;;;;7.00;7.00;;;;;23.41;54.18;101431.16;110685;1258;19229;-65
2022/07/29 07:39:33;;;;;;;;;6.00;6.00;;;;;23.66;53.76;101427.48;110567;1258;19481;-65
2022/07/29 07:42:00;;;;;;;;;5.00;5.00;;;;;23.77;53.17;101426.63;110260;1259;325666;-64
2022/07/29 07:44:28;;;;;;;;;7.00;6.67;;;;;23.43;52.77;101429.48;110474;1259;19250;-66
2022/07/29 07:46:56;;;;;;;;;8.00;6.33;;;;;23.54;52.78;101427.48;110454;1259;19672;-63
2022/07/29 07:49:23;;;;;;;;;6.33;6.33;;;;;23.74;52.49;101428.96;110536;1258;22381;-65
2022/07/29 07:51:52;;;;;;;;;7.00;6.00;;;;;23.90;51.91;101433.11;110491;1258;19111;-64
2022/07/29 07:54:19;;;;;;;;;6.00;6.00;;;;;23.04;52.27;101436.70;110589;1258;22331;-65
2022/07/29 07:56:48;;;;;;;;;6.00;6.00;;;;;22.78;52.82;101434.34;110529;1258;20397;-65
2022/07/29 07:59:16;;;;;;;;;7.00;6.00;;;;;22.89;52.82;101432.27;110551;1259;23801;-64
2022/07/29 08:01:43;;;;;;;;;5.50;5.50;;;;;23.32;52.24;101428.02;110560;1258;19644;-65
2022/07/29 08:04:10;;;;;;;;;7.00;6.67;;;;;23.66;51.50;101428.46;110476;1259;20475;-64
2022/07/29 08:06:38;;;;;;;;;6.00;6.00;;;;;23.28;51.20;101427.63;110556;1258;24162;-64
2022/07/29 08:09:05;;;;;;;;;5.33;5.00;;;;;23.03;52.01;101426.08;110540;1259;19610;-65
2022/07/29 08:11:33;;;;;;;;;5.33;5.33;;;;;23.31;51.67;101426.12;110523;1259;20273;-65
2022/07/29 08:14:01;;;;;;;;;6.00;6.00;;;;;23.45;50.82;101422.90;110426;1258;19681;-60
2022/07/29 08:16:28;;;;;;;;;6.00;6.00;;;;;23.47;50.49;101426.79;110491;1259;22987;-63
2022/07/29 08:18:56;;;;;;;;;5.00;5.00;;;;;23.26;50.39;101429.06;110602;1259;20356;-66
2022/07/29 08:21:24;;;;;;;;;5.00;5.00;;;;;23.07;50.79;101424.48;110507;1259;23352;-64
2022/07/29 08:23:52;;;;;;;;;5.00;5.00;;;;;23.22;50.79;101431.08;110479;1258;19546;-67
2022/07/29 08:26:22;;;;;;;;;5.00;5.00;;;;;23.33;50.42;101433.17;110479;1259;20461;-64
2022/07/29 08:28:50;;;;;;;;;6.00;6.00;;;;;23.42;50.00;101432.91;110375;1259;24339;-66
2022/07/29 08:31:18;;;;;;;;;6.00;5.67;;;;;23.33;49.97;101430.30;110535;1258;20217;-61
2022/07/29 08:33:45;;;;;;;;;6.00;5.00;;;;;23.32;49.79;101431.71;110405;1258;20368;-61
2022/07/29 08:36:13;;;;;;;;;7.00;7.00;;;;;23.44;49.87;101429.54;110497;1258;19183;-63
2022/07/29 08:38:41;;;;;;;;;5.00;5.00;;;;;23.57;49.43;101431.08;111339;1258;19763;-65
2022/07/29 08:41:08;;;;;;;;;8.33;6.67;;;;;23.70;49.40;101436.77;110495;1259;20296;-62
2022/07/29 08:43:37;;;;;;;;;5.00;5.00;;;;;23.80;49.11;101428.87;110562;1258;19204;-64
2022/07/29 08:46:04;;;;;;;;;5.00;5.00;;;;;24.00;48.66;101427.17;110647;1258;23157;-64
2022/07/29 08:48:32;;;;;;;;;6.67;6.00;;;;;24.02;48.22;101427.87;110571;1258;20446;-64
2022/07/29 08:50:59;;;;;;;;;5.00;5.00;;;;;23.85;48.09;101426.95;110475;1259;19331;-62
2022/07/29 08:53:28;;;;;;;;;5.00;5.00;;;;;23.72;48.25;101427.00;110516;1258;19650;-65
2022/07/29 08:55:55;;;;;;;;;6.00;6.00;;;;;23.76;47.97;101427.11;110629;1258;20815;-62
2022/07/29 08:58:23;;;;;;;;;5.00;5.00;;;;;23.85;47.45;101430.41;110623;1258;21129;-62
2022/07/29 09:00:50;;;;;;;;;5.00;5.00;;;;;23.81;47.25;101428.42;110562;1259;19526;-64
2022/07/29 09:03:17;;;;;;;;;3.67;3.67;;;;;23.63;47.00;101426.62;110429;1260;23216;-64
2022/07/29 09:05:45;;;;;;;;;5.00;5.00;;;;;23.70;47.16;101428.92;110482;1260;19295;-65
2022/07/29 09:08:12;;;;;;;;;6.00;5.00;;;;;23.80;46.87;101422.35;110446;1260;19386;-65
2022/07/29 09:10:39;;;;;;;;;8.00;5.00;;;;;23.83;46.45;101424.06;110459;1261;20317;-65
2022/07/29 09:13:07;;;;;;;;;6.00;5.33;;;;;23.91;46.56;101422.82;110627;1259;24033;-66
2022/07/29 09:15:34;;;;;;;;;6.00;6.00;;;;;24.05;46.42;101419.88;110574;1258;32840;-65
2022/07/29 09:18:02;;;;;;;;;6.00;6.00;;;;;24.08;45.57;101422.08;110610;1258;20722;-63
2022/07/29 09:21:57;;;;;;;;;5.00;5.00;;;;;24.00;45.33;101421.00;110591;1258;19673;-65
2022/07/29 09:23:17;;;;;;;;;6.00;6.00;;;;;23.86;45.13;101420.83;110576;1258;20098;-64
2022/07/29 09:25:44;;;;;;;;;5.67;5.67;;;;;23.73;45.41;101418.71;110549;1259;20331;-64
2022/07/29 09:28:12;;;;;;;;;7.00;5.33;;;;;23.87;45.39;101412.89;110616;1258;19786;-64
2022/07/29 09:30:39;;;;;;;;;6.00;6.00;;;;;24.07;44.95;101410.89;110546;1258;19462;-64
2022/07/29 09:33:06;;;;;;;;;6.00;6.00;;;;;24.05;44.13;101405.77;110555;1258;20313;-64
2022/07/29 09:35:34;;;;;;;;;7.00;7.00;;;;;24.03;44.36;101415.67;110601;1258;19252;-64
2022/07/29 09:38:01;;;;;;;;;6.00;6.00;;;;;24.09;44.26;101413.17;110585;1259;19479;-64
2022/07/29 09:40:29;;;;;;;;;6.00;6.00;;;;;24.02;44.14;101409.07;110531;1258;20307;-63
2022/07/29 09:42:57;;;;;;;;;8.00;8.00;;;;;24.04;43.86;101406.84;110626;1259;23321;-64
2022/07/29 09:45:24;;;;;;;;;6.00;6.00;;;;;24.00;43.37;101405.33;110567;1258;32916;-65
2022/07/29 09:47:51;;;;;;;;;6.00;6.00;;;;;23.90;43.32;101409.03;110599;1258;20311;-65
2022/07/29 09:50:23;;;;;;;;;5.00;5.00;;;;;23.75;43.09;101406.45;110584;1259;19382;-65
2022/07/29 09:52:50;;;;;;;;;6.00;5.00;;;;;23.77;43.00;101406.41;110485;1259;19440;-64
2022/07/29 09:55:18;;;;;;;;;6.00;6.00;;;;;23.77;43.03;101408.08;110649;1258;20233;-61
2022/07/29 09:57:45;;;;;;;;;6.00;6.00;;;;;23.72;43.25;101404.19;110589;1259;19373;-65
2022/07/29 10:00:13;;;;;;;;;6.00;6.00;;;;;23.62;43.06;101403.88;110536;1258;19628;-63
2022/07/29 10:02:40;;;;;;;;;6.00;5.67;;;;;23.55;43.03;101402.19;110562;1258;20630;-64
2022/07/29 10:05:08;;;;;;;;;5.67;5.67;;;;;23.67;43.04;101404.66;110502;1258;19428;-64
2022/07/29 10:07:39;;;;;;;;;5.00;5.00;;;;;23.57;42.87;101404.10;110467;1258;19692;-63
2022/07/29 10:10:07;;;;;;;;;6.00;6.00;;;;;23.50;42.87;101400.25;110667;1258;20351;-62
2022/07/29 10:12:35;;;;;;;;;5.00;5.00;;;;;23.60;42.77;101397.39;110606;1259;19121;-63
2022/07/29 10:15:02;;;;;;;;;6.00;6.00;;;;;23.69;42.66;101397.25;110620;1259;19724;-64
2022/07/29 10:17:29;;;;;;;;;6.00;6.00;;;;;23.69;42.14;101395.64;110803;1258;20256;-62
2022/07/29 10:19:57;;;;;;;;;7.00;7.00;;;;;23.55;42.49;101397.95;110751;1258;19226;-65
2022/07/29 10:22:24;;;;;;;;;5.00;5.00;;;;;23.46;42.62;101396.71;110800;1258;19339;-63
2022/07/29 10:24:52;;;;;;;;;6.00;6.00;;;;;23.48;42.99;101392.96;110770;1258;20350;-64
2022/07/29 10:27:19;;;;;;;;;6.00;5.67;;;;;23.59;42.89;101391.34;110726;1258;19469;-64
2022/07/29 10:29:47;;;;;;;;;6.50;6.50;;;;;23.60;42.60;101390.77;110743;1258;19653;-64
2022/07/29 10:32:14;;;;;;;;;7.67;7.33;;;;;23.62;42.56;101384.79;110687;1258;20404;-63
2022/07/29 10:34:42;;;;;;;;;7.00;7.00;;;;;23.70;42.46;101382.16;110700;1258;19198;-64
2022/07/29 10:37:10;;;;;;;;;6.00;6.00;;;;;23.79;42.35;101380.25;110759;1258;19677;-64
2022/07/29 10:39:37;;;;;;;;;6.00;6.00;;;;;23.79;41.92;101383.84;110742;1258;20267;-64
2022/07/29 10:42:04;;;;;;;;;7.00;7.00;;;;;23.64;42.12;101382.16;110756;1258;19242;-65
2022/07/29 10:44:31;;;;;;;;;6.00;6.00;;;;;23.70;42.05;101381.23;110703;1258;21821;-64
2022/07/29 10:46:59;;;;;;;;;9.00;7.67;;;;;23.79;42.10;101388.64;110722;1258;20318;-65
2022/07/29 10:49:27;;;;;;;;;7.00;7.00;;;;;23.78;41.96;101386.41;110702;1258;19215;-65
2022/07/29 10:51:54;;;;;;;;;7.00;6.00;;;;;23.80;41.86;101383.77;110683;1258;19489;-62
2022/07/29 10:54:21;;;;;;;;;6.67;6.00;;;;;23.81;41.79;101386.15;110741;1258;23157;-62
2022/07/29 10:56:49;;;;;;;;;6.33;6.00;;;;;23.77;41.77;101376.26;110732;1258;24570;-62
2022/07/29 10:59:16;;;;;;;;;6.00;6.00;;;;;23.84;41.71;101375.84;110720;1258;21031;-64
2022/07/29 11:01:43;;;;;;;;;7.00;6.00;;;;;23.78;41.70;101376.15;110749;1258;20694;-66
2022/07/29 11:04:11;;;;;;;;;6.67;6.33;;;;;23.75;41.87;101377.31;110731;1258;23164;-64
2022/07/29 11:06:38;;;;;;;;;7.00;6.00;;;;;23.79;42.00;101378.66;110728;1258;23767;-65
2022/07/29 11:09:06;;;;;;;;;7.67;6.33;;;;;23.76;41.94;101376.02;110720;1258;23501;-64
2022/07/29 11:11:35;;;;;;;;;6.00;6.00;;;;;23.76;41.85;101375.86;110780;1258;19206;-65
2022/07/29 11:14:03;;;;;;;;;5.33;5.33;;;;;23.76;41.57;101374.89;110696;1258;19810;-64